createdAt,value
2022-12-07T00:04:25.842Z,1565.05263
2022-12-07T00:09:27.848Z,1410.66667
2022-12-07T00:14:29.443Z,1344
2022-12-07T00:19:31.073Z,1227.33333
2022-12-07T00:24:33.200Z,1227.33333
2022-12-07T00:29:34.865Z,1201.14286
2022-12-07T00:34:36.463Z,1006.06897
2022-12-07T00:39:38.038Z,937.54839
2022-12-07T00:44:39.947Z,1006.06897
2022-12-07T00:49:41.662Z,836.75362
2022-12-07T00:54:43.723Z,744
2022-12-07T00:59:45.522Z,733.74359
2022-12-07T01:04:47.080Z,723.74684
2022-12-07T01:09:48.788Z,686.16867
2022-12-07T01:14:50.244Z,765.33333
2022-12-07T01:19:51.831Z,714
2022-12-07T01:24:53.493Z,644
2022-12-07T01:29:55.050Z,585.66667
2022-12-07T01:34:56.564Z,585.66667
2022-12-07T01:39:58.207Z,572.57143
2022-12-07T01:44:59.939Z,519.70093
2022-12-07T01:50:01.642Z,453.09091
2022-12-07T01:55:03.658Z,396.94118
2022-12-07T02:00:05.446Z,429.03937
2022-12-07T02:05:07.195Z,390.37681
2022-12-07T02:10:08.990Z,440.77419
2022-12-07T02:15:10.483Z,504
2022-12-07T02:20:11.980Z,484.35088
2022-12-07T02:25:13.833Z,417.84615
2022-12-07T02:30:15.406Z,479.65217
2022-12-07T02:35:16.876Z,421.51938
2022-12-07T02:40:18.709Z,592.42105
2022-12-07T02:45:20.486Z,514.37037
2022-12-07T02:50:21.971Z,429.03937
2022-12-07T02:55:23.863Z,407.15789
2022-12-07T03:00:25.482Z,407.15789
2022-12-07T03:05:27.136Z,403.70149
2022-12-07T03:10:28.661Z,421.51938
2022-12-07T03:15:30.593Z,432.88889
2022-12-07T03:20:32.196Z,374.76923
2022-12-07T03:25:33.803Z,341.41935
2022-12-07T03:30:35.229Z,341.41935
2022-12-07T03:35:36.754Z,329
2022-12-07T03:40:38.275Z,363.04762
2022-12-07T03:45:39.812Z,329
2022-12-07T03:50:41.516Z,308.49704
2022-12-07T03:55:43.251Z,336.35669
2022-12-07T04:00:44.967Z,292.0226
2022-12-07T04:05:46.726Z,282.46154
2022-12-07T04:10:48.373Z,264.83333
2022-12-07T04:15:50.036Z,269.92593
2022-12-07T04:20:51.550Z,263.17098
2022-12-07T04:25:53.188Z,210.66667
2022-12-07T04:30:54.844Z,304.23392
2022-12-07T04:35:56.282Z,341.41935
2022-12-07T04:40:57.770Z,374.76923
2022-12-07T04:45:59.257Z,484.35088
2022-12-07T04:51:00.820Z,754.52632
2022-12-07T04:56:02.504Z,863.40299
2022-12-07T05:01:04.069Z,787.83562
2022-12-07T05:06:09.089Z,799.55556
2022-12-07T05:11:13.299Z,606.36559
2022-12-07T05:16:14.945Z,652.04598
2022-12-07T05:21:16.437Z,620.92308
2022-12-07T05:26:18.782Z,1128.61538
2022-12-07T05:31:20.711Z,849.88235
2022-12-07T05:36:22.463Z,988.0678
2022-12-07T05:41:24.053Z,765.33333
2022-12-07T05:46:25.557Z,733.74359
2022-12-07T05:51:26.995Z,1128.61538
2022-12-07T05:56:28.882Z,1128.61538
2022-12-07T06:01:30.442Z,1376.55814
2022-12-07T06:06:32.039Z,1655.11111
2022-12-07T06:11:33.814Z,1523.48718
2022-12-07T06:16:35.571Z,1312.88889
2022-12-07T06:21:37.202Z,1151.84314
2022-12-07T06:26:39.648Z,1344
2022-12-07T06:31:41.435Z,1704
2022-12-07T06:36:43.098Z,1283.13043
2022-12-07T06:41:45.013Z,988.0678
2022-12-07T06:46:46.448Z,937.54839
2022-12-07T06:51:48.152Z,1201.14286
2022-12-07T06:56:49.797Z,1376.55814
2022-12-07T07:01:51.298Z,1254.6383
2022-12-07T07:06:58.175Z,1810.66667
2022-12-07T07:12:03.735Z,1446.43902
2022-12-07T07:17:05.229Z,1810.66667
2022-12-07T07:22:07.180Z,1565.05263
2022-12-07T07:27:08.974Z,2622.26087
2022-12-07T07:32:10.395Z,2408
2022-12-07T07:37:11.879Z,2510.66667
2022-12-07T07:42:13.540Z,3024
2022-12-07T07:47:15.185Z,1410.66667
2022-12-07T07:52:16.786Z,2225.48148
2022-12-07T07:57:18.856Z,2068.13793
2022-12-07T08:02:20.352Z,2225.48148
2022-12-07T08:07:22.039Z,2510.66667
2022-12-07T08:12:23.529Z,2622.26087
2022-12-07T08:17:25.076Z,1608.86486
2022-12-07T08:22:26.811Z,2408
2022-12-07T08:27:29.185Z,1869
2022-12-07T08:32:30.729Z,1755.76471
2022-12-07T08:37:32.231Z,2313.23077
2022-12-07T08:42:33.871Z,1344
2022-12-07T08:47:35.449Z,1410.66667
2022-12-07T08:52:36.956Z,2225.48148
2022-12-07T08:57:38.677Z,1044
2022-12-07T09:02:40.178Z,1064
2022-12-07T09:07:41.805Z,1869
2022-12-07T09:12:43.441Z,1376.55814
2022-12-07T09:17:45.073Z,1869
2022-12-07T09:22:46.777Z,2068.13793
2022-12-07T09:27:48.772Z,2225.48148
2022-12-07T09:32:50.377Z,2622.26087
2022-12-07T09:37:51.977Z,1410.66667
2022-12-07T09:42:53.651Z,1283.13043
2022-12-07T09:47:55.189Z,1523.48718
2022-12-07T09:52:56.811Z,1704
2022-12-07T09:57:58.476Z,1655.11111
2022-12-07T10:02:59.902Z,2408
2022-12-07T10:08:01.490Z,1755.76471
2022-12-07T10:13:03.349Z,1484
2022-12-07T10:18:04.796Z,1484
2022-12-07T10:23:06.323Z,2068.13793
2022-12-07T10:28:08.117Z,1997.33333
2022-12-07T10:33:09.575Z,2744
2022-12-07T10:38:11.180Z,1755.76471
2022-12-07T10:43:12.748Z,2068.13793
2022-12-07T10:48:14.320Z,1997.33333
2022-12-07T10:53:15.751Z,2313.23077
2022-12-07T10:58:18.470Z,2510.66667
2022-12-07T11:03:20.177Z,988.0678
2022-12-07T11:08:21.718Z,1064
2022-12-07T11:13:28.101Z,1227.33333
2022-12-07T11:18:30.094Z,1176
2022-12-07T11:23:31.694Z,1755.76471
2022-12-07T11:28:33.322Z,2313.23077
2022-12-07T11:33:34.886Z,2510.66667
2022-12-07T11:38:36.374Z,1931.09677
2022-12-07T11:43:38.039Z,2225.48148
2022-12-07T11:48:39.634Z,3024
2022-12-07T11:53:41.200Z,2744
2022-12-07T11:58:42.911Z,3186.10526
2022-12-07T12:03:48.244Z,4050.66667
2022-12-07T12:14:33.846Z,3366.22222
2022-12-07T12:19:36.115Z,1869
2022-12-07T12:24:37.609Z,3024
2022-12-07T12:29:39.588Z,4050.66667
2022-12-07T12:34:44.252Z,3366.22222
2022-12-07T12:39:51.408Z,5077.33333
2022-12-07T12:44:52.974Z,6788.44444
2022-12-07T12:49:54.465Z,6104
2022-12-07T12:54:56.036Z,5544
2022-12-07T12:59:58.135Z,4682.46154
2022-12-07T13:04:59.870Z,3567.52941
2022-12-07T13:10:01.585Z,3794
2022-12-07T13:15:03.276Z,3186.10526
2022-12-07T13:20:05.107Z,1227.33333
2022-12-07T13:25:06.579Z,1446.43902
2022-12-07T13:30:08.267Z,2225.48148
2022-12-07T13:35:09.938Z,1565.05263
2022-12-07T13:40:11.377Z,1446.43902
2022-12-07T13:45:13.024Z,1312.88889
2022-12-07T13:50:14.750Z,1869
2022-12-07T13:55:16.416Z,1044
2022-12-07T14:00:18.130Z,1869
2022-12-07T14:05:19.582Z,2510.66667
2022-12-07T14:10:21.092Z,3024
2022-12-07T14:15:22.636Z,2068.13793
2022-12-07T14:20:24.121Z,1655.11111
2022-12-07T14:25:25.815Z,1565.05263
2022-12-07T14:30:27.758Z,1006.06897
2022-12-07T14:35:29.651Z,1704
2022-12-07T14:40:31.294Z,953.83607
2022-12-07T14:45:33.008Z,2622.26087
2022-12-07T14:50:34.558Z,3024
2022-12-07T14:55:36.274Z,1810.66667
2022-12-07T15:00:37.984Z,2144
2022-12-07T15:05:39.533Z,1227.33333
2022-12-07T15:10:41.057Z,525.13208
2022-12-07T15:15:42.711Z,937.54839
2022-12-07T15:20:44.232Z,1997.33333
2022-12-07T15:25:45.731Z,2408
2022-12-07T15:30:47.739Z,1810.66667
2022-12-07T15:35:49.351Z,2225.48148
2022-12-07T15:40:51.221Z,3366.22222
2022-12-07T15:45:52.673Z,2408
2022-12-07T15:50:54.118Z,2144
2022-12-07T15:55:55.654Z,3024
2022-12-07T16:00:57.447Z,2877.33333
2022-12-07T16:05:58.996Z,2744
2022-12-07T16:11:00.432Z,2068.13793
2022-12-07T16:16:02.051Z,1997.33333
2022-12-07T16:21:03.794Z,1410.66667
2022-12-07T16:26:05.322Z,652.04598
2022-12-07T16:31:07.012Z,937.54839
2022-12-07T16:36:08.737Z,525.13208
2022-12-07T16:41:10.457Z,475.03448
2022-12-07T16:46:12.159Z,470.49573
2022-12-07T16:51:13.899Z,407.15789
2022-12-07T16:56:15.385Z,329
2022-12-07T17:01:17.105Z,417.84615
2022-12-07T17:06:18.696Z,349.26316
2022-12-07T17:11:20.322Z,276.97297
2022-12-07T17:16:22.815Z,276.97297
2022-12-07T17:21:25.118Z,280.61202
2022-12-07T17:26:30.672Z,292.0226
2022-12-07T17:31:36.769Z,227.87097
2022-12-07T17:36:38.284Z,234.56604
2022-12-07T17:41:39.803Z,224
2022-12-07T17:46:41.444Z,176.45283
2022-12-07T17:51:43.128Z,148.65116
2022-12-07T17:56:44.719Z,147.30033
2022-12-07T18:01:46.457Z,158.63415
2022-12-07T18:06:51.998Z,163.21708
2022-12-07T18:11:54.424Z,184.625
2022-12-07T18:16:56.027Z,186.51969
2022-12-07T18:21:57.655Z,189.41833
2022-12-07T18:26:59.115Z,188.44444
2022-12-07T18:32:00.940Z,198.54545
2022-12-07T18:37:02.538Z,157.14879
2022-12-07T18:42:04.017Z,155.68385
2022-12-07T18:47:05.823Z,146.63158
2022-12-07T18:52:07.425Z,155.68385
2022-12-07T18:57:08.872Z,152.10811
2022-12-07T19:02:10.636Z,150.71141
2022-12-07T19:07:12.444Z,139.55556
2022-12-07T19:12:14.097Z,139.55556
2022-12-07T19:17:15.683Z,137.71069
2022-12-07T19:22:17.226Z,129.54217
2022-12-07T19:27:18.914Z,127.8806
2022-12-07T19:32:20.818Z,130.10272
2022-12-07T19:37:22.549Z,126.78932
2022-12-07T19:42:24.229Z,140.80511
2022-12-07T19:47:25.807Z,142.70968
2022-12-07T19:52:29.976Z,130.10272
2022-12-07T19:57:33.872Z,126.78932
2022-12-07T20:02:38.817Z,123.06977
2022-12-07T20:07:40.354Z,142.70968
2022-12-07T20:12:41.964Z,135.90031
2022-12-07T20:17:43.522Z,141.4359
2022-12-07T20:22:45.110Z,137.71069
2022-12-07T20:27:46.661Z,138.32177
2022-12-07T20:32:48.486Z,137.71069
2022-12-07T20:37:50.049Z,136.5
2022-12-07T20:42:51.537Z,133.53846
2022-12-07T20:47:52.996Z,130.66667
2022-12-07T20:53:00.241Z,131.23404
2022-12-07T20:58:02.152Z,134.12346
2022-12-07T21:03:04.084Z,141.4359
2022-12-07T21:08:05.692Z,144
2022-12-07T21:13:08.820Z,140.17834
2022-12-07T21:18:10.483Z,147.97351
2022-12-07T21:23:12.032Z,156.41379
2022-12-07T21:28:13.463Z,156.41379
2022-12-07T21:33:15.075Z,165.58273
2022-12-07T21:38:16.668Z,172.99628
2022-12-07T21:43:18.123Z,178.22053
2022-12-07T21:48:19.574Z,221.47748
2022-12-07T21:53:21.154Z,248.9505
2022-12-07T21:58:22.945Z,252
2022-12-07T22:03:24.746Z,231.85047
2022-12-07T22:08:26.341Z,237.33333
2022-12-07T22:13:27.844Z,225.27854
2022-12-07T22:18:29.455Z,216.56637
2022-12-07T22:23:31.047Z,208.37768
2022-12-07T22:28:32.607Z,207.24786
2022-12-07T22:33:34.357Z,203.91561
2022-12-07T22:38:35.918Z,198.54545
2022-12-07T22:43:37.452Z,196.45902
2022-12-07T22:48:39.125Z,196.45902
2022-12-07T22:53:41.661Z,195.42857
2022-12-07T22:58:43.115Z,186.51969
2022-12-07T23:03:45.083Z,199.60166
2022-12-07T23:08:46.735Z,206.12766
2022-12-07T23:13:48.282Z,196.45902
2022-12-07T23:18:49.972Z,201.74059
2022-12-07T23:23:51.608Z,196.45902
2022-12-07T23:28:53.070Z,209.51724
2022-12-07T23:33:54.803Z,202.82353
2022-12-07T23:38:56.223Z,202.82353
2022-12-07T23:43:57.793Z,195.42857
2022-12-07T23:48:59.455Z,203.91561
2022-12-07T23:54:01.034Z,210.66667
2022-12-07T23:59:02.649Z,217.77778
